createdAt,value
2024-01-16T00:02:12.433Z,10.00
2024-01-16T00:04:42.118Z,9.90
2024-01-16T00:07:10.143Z,9.70
2024-01-16T00:09:38.328Z,8.90
2024-01-16T00:12:06.862Z,10.30
2024-01-16T00:14:38.549Z,10.20
2024-01-16T00:17:07.144Z,9.70
2024-01-16T00:19:35.323Z,9.70
2024-01-16T00:22:06.316Z,10.10
2024-01-16T00:24:34.746Z,10.20
2024-01-16T00:27:02.526Z,10.70
2024-01-16T00:29:31.860Z,7.80
2024-01-16T00:31:59.856Z,4.40
2024-01-16T00:34:27.868Z,6.10
2024-01-16T00:36:56.285Z,4.60
2024-01-16T00:39:24.212Z,4.50
2024-01-16T00:41:52.212Z,3.50
2024-01-16T00:44:20.530Z,5.10
2024-01-16T00:46:48.588Z,7.20
2024-01-16T00:49:18.979Z,7.10
2024-01-16T00:51:48.503Z,6.10
2024-01-16T00:54:16.467Z,6.40
2024-01-16T00:56:44.402Z,6.40
2024-01-16T00:59:13.442Z,10.00
2024-01-16T01:01:41.444Z,6.30
2024-01-16T01:04:09.296Z,7.10
2024-01-16T01:06:37.765Z,8.50
2024-01-16T01:09:05.776Z,7.10
2024-01-16T01:11:33.614Z,7.40
2024-01-16T01:14:01.619Z,7.80
2024-01-16T01:16:29.641Z,8.00
2024-01-16T01:18:57.429Z,8.60
2024-01-16T01:21:25.847Z,8.10
2024-01-16T01:23:53.996Z,9.40
2024-01-16T01:26:21.948Z,10.10
2024-01-16T01:28:52.011Z,7.80
2024-01-16T01:31:21.437Z,7.50
2024-01-16T01:33:49.283Z,8.20
2024-01-16T01:36:17.542Z,8.50
2024-01-16T01:38:45.784Z,10.60
2024-01-16T01:41:13.758Z,10.00
2024-01-16T01:43:41.819Z,7.90
2024-01-16T01:46:19.641Z,8.70
2024-01-16T01:48:49.515Z,8.50
2024-01-16T01:51:21.642Z,8.50
2024-01-16T01:53:52.821Z,7.00
2024-01-16T01:56:22.299Z,8.70
2024-01-16T01:58:54.783Z,9.40
2024-01-16T02:01:23.824Z,11.00
2024-01-16T02:03:53.521Z,10.90
2024-01-16T02:06:21.721Z,9.60
2024-01-16T02:08:50.146Z,10.70
2024-01-16T02:11:18.242Z,9.70
2024-01-16T02:13:46.857Z,10.30
2024-01-16T02:16:25.286Z,9.20
2024-01-16T02:18:54.036Z,9.90
2024-01-16T02:21:23.652Z,9.80
2024-01-16T02:23:51.581Z,9.20
2024-01-16T02:26:20.823Z,7.70
2024-01-16T02:28:49.532Z,8.10
2024-01-16T02:31:18.032Z,9.40
2024-01-16T02:33:46.364Z,9.10
2024-01-16T02:36:14.954Z,9.40
2024-01-16T02:38:46.067Z,8.90
2024-01-16T02:41:17.104Z,9.30
2024-01-16T02:43:45.916Z,11.20
2024-01-16T02:46:14.651Z,10.40
2024-01-16T02:48:44.067Z,12.40
2024-01-16T02:51:12.123Z,9.60
2024-01-16T02:53:40.145Z,11.50
2024-01-16T02:56:10.068Z,8.70
2024-01-16T02:58:38.644Z,8.50
2024-01-16T03:01:06.548Z,10.40
2024-01-16T03:03:34.765Z,8.90
2024-01-16T03:06:03.016Z,10.00
2024-01-16T03:08:31.405Z,10.90
2024-01-16T03:10:59.317Z,9.60
2024-01-16T03:13:27.435Z,8.70
2024-01-16T03:15:55.413Z,10.40
2024-01-16T03:18:23.651Z,9.00
2024-01-16T03:20:51.956Z,9.50
2024-01-16T03:23:20.200Z,10.90
2024-01-16T03:25:48.469Z,8.20
2024-01-16T03:28:16.501Z,8.70
2024-01-16T03:30:44.580Z,8.20
2024-01-16T03:33:12.784Z,10.40
2024-01-16T03:35:40.726Z,9.00
2024-01-16T03:38:08.828Z,7.80
2024-01-16T03:40:37.132Z,7.70
2024-01-16T03:43:06.698Z,8.10
2024-01-16T03:48:04.891Z,7.50
2024-01-16T03:50:33.019Z,6.30
2024-01-16T03:53:01.005Z,7.50
2024-01-16T03:55:28.897Z,7.90
2024-01-16T03:57:56.803Z,7.00
2024-01-16T04:00:25.100Z,8.00
2024-01-16T04:02:53.053Z,7.40
2024-01-16T04:05:21.281Z,7.40
2024-01-16T04:07:49.438Z,5.40
2024-01-16T04:10:17.378Z,5.70
2024-01-16T04:12:45.381Z,6.80
2024-01-16T04:15:13.430Z,5.60
2024-01-16T04:17:41.520Z,5.30
2024-01-16T04:20:10.722Z,6.70
2024-01-16T04:22:38.646Z,7.70
2024-01-16T04:25:07.458Z,4.60
2024-01-16T04:27:35.416Z,5.70
2024-01-16T04:30:04.280Z,7.00
2024-01-16T04:32:32.834Z,6.00
2024-01-16T04:35:00.935Z,6.80
2024-01-16T04:37:28.905Z,5.80
2024-01-16T04:39:59.303Z,7.40
2024-01-16T04:42:27.783Z,7.70
2024-01-16T04:44:55.645Z,7.10
2024-01-16T04:47:23.844Z,6.60
2024-01-16T04:49:51.911Z,8.50
2024-01-16T04:52:20.219Z,7.70
2024-01-16T04:54:48.524Z,8.40
2024-01-16T04:57:16.449Z,7.70
2024-01-16T04:59:44.294Z,6.20
2024-01-16T05:02:12.899Z,7.10
2024-01-16T05:04:40.899Z,8.60
2024-01-16T05:07:08.651Z,7.60
2024-01-16T05:09:36.777Z,6.40
2024-01-16T05:12:05.759Z,7.50
2024-01-16T05:14:33.529Z,5.50
2024-01-16T05:17:01.692Z,7.60
2024-01-16T05:19:29.989Z,6.70
2024-01-16T05:21:57.779Z,6.80
2024-01-16T05:24:26.105Z,6.50
2024-01-16T05:26:54.228Z,7.40
2024-01-16T05:29:22.090Z,8.30
2024-01-16T05:31:51.651Z,6.80
2024-01-16T05:34:19.797Z,8.10
2024-01-16T05:36:47.594Z,8.20
2024-01-16T05:39:15.640Z,8.90
2024-01-16T05:41:43.650Z,10.30
2024-01-16T05:44:11.863Z,6.50
2024-01-16T05:46:39.960Z,8.20
2024-01-16T05:49:08.390Z,10.40
2024-01-16T05:51:36.541Z,9.90
2024-01-16T05:54:04.782Z,9.10
2024-01-16T05:56:33.286Z,10.70
2024-01-16T05:59:01.068Z,6.60
2024-01-16T06:01:29.317Z,10.20
2024-01-16T06:03:57.174Z,8.30
2024-01-16T06:06:25.017Z,8.40
2024-01-16T06:08:53.440Z,8.70
2024-01-16T06:11:31.750Z,9.80
2024-01-16T06:14:00.934Z,12.10
2024-01-16T06:18:56.805Z,9.90
2024-01-16T06:21:25.732Z,8.90
2024-01-16T06:23:54.003Z,7.10
2024-01-16T06:26:22.862Z,8.80
2024-01-16T06:28:50.990Z,7.40
2024-01-16T06:31:21.644Z,6.80
2024-01-16T06:33:50.252Z,7.80
2024-01-16T06:36:18.769Z,8.20
2024-01-16T06:38:47.075Z,6.60
2024-01-16T06:41:14.965Z,7.20
2024-01-16T06:43:43.003Z,8.40
2024-01-16T06:46:11.048Z,10.20
2024-01-16T06:48:39.517Z,7.90
2024-01-16T06:51:09.465Z,8.70
2024-01-16T06:53:38.200Z,8.90
2024-01-16T06:56:09.046Z,7.20
2024-01-16T06:58:37.374Z,7.30
2024-01-16T07:01:05.421Z,8.20
2024-01-16T07:03:33.443Z,6.60
2024-01-16T07:06:04.436Z,6.30
2024-01-16T07:08:33.009Z,7.40
2024-01-16T07:11:01.166Z,6.30
2024-01-16T07:13:29.565Z,6.20
2024-01-16T07:15:57.819Z,5.90
2024-01-16T07:18:25.953Z,7.60
2024-01-16T07:20:54.319Z,7.80
2024-01-16T07:23:22.398Z,7.70
2024-01-16T07:25:50.404Z,6.20
2024-01-16T07:28:18.869Z,7.90
2024-01-16T07:30:46.867Z,8.20
2024-01-16T07:33:14.841Z,6.90
2024-01-16T07:35:45.351Z,6.70
2024-01-16T07:38:13.459Z,7.00
2024-01-16T07:40:41.364Z,6.80
2024-01-16T07:43:09.526Z,6.90
2024-01-16T07:45:37.540Z,9.50
2024-01-16T07:48:05.773Z,9.70
2024-01-16T07:50:36.359Z,10.30
2024-01-16T07:53:04.391Z,10.20
2024-01-16T07:55:32.516Z,10.90
2024-01-16T07:58:00.712Z,10.30
2024-01-16T08:00:33.323Z,10.10
2024-01-16T08:03:01.740Z,9.40
2024-01-16T08:05:31.647Z,8.30
2024-01-16T08:07:59.762Z,8.20
2024-01-16T08:10:27.962Z,8.40
2024-01-16T08:12:56.006Z,9.70
2024-01-16T08:15:24.055Z,7.70
2024-01-16T08:17:52.492Z,8.90
2024-01-16T08:20:20.683Z,9.50
2024-01-16T08:22:48.649Z,10.60
2024-01-16T08:25:17.262Z,9.50
2024-01-16T08:27:46.490Z,9.10
2024-01-16T08:32:43.103Z,11.90
2024-01-16T08:35:11.779Z,12.40
2024-01-16T08:37:40.449Z,10.90
2024-01-16T08:40:09.491Z,10.90
2024-01-16T08:42:37.491Z,11.20
2024-01-16T08:45:06.757Z,12.00
2024-01-16T08:47:35.024Z,10.60
2024-01-16T08:50:03.689Z,11.30
2024-01-16T08:52:32.199Z,9.20
2024-01-16T08:55:03.478Z,12.00
2024-01-16T08:57:31.422Z,9.40
2024-01-16T08:59:59.411Z,9.90
2024-01-16T09:02:30.516Z,8.80
2024-01-16T09:04:59.843Z,10.30
2024-01-16T09:07:29.114Z,10.90
2024-01-16T09:09:59.863Z,9.20
2024-01-16T09:12:27.756Z,11.20
2024-01-16T09:14:55.769Z,10.00
2024-01-16T09:17:27.053Z,13.10
2024-01-16T09:19:55.126Z,15.20
2024-01-16T09:22:23.151Z,13.80
2024-01-16T09:24:51.392Z,11.10
2024-01-16T09:27:19.582Z,9.70
2024-01-16T09:29:47.590Z,8.70
2024-01-16T09:32:15.645Z,10.70
2024-01-16T09:34:43.486Z,12.00
2024-01-16T09:37:14.017Z,10.90
2024-01-16T09:39:42.522Z,13.20
2024-01-16T09:42:10.674Z,10.00
2024-01-16T09:44:39.009Z,11.60
2024-01-16T09:47:09.340Z,9.00
2024-01-16T09:49:37.602Z,8.10
2024-01-16T09:52:11.467Z,8.20
2024-01-16T09:54:54.935Z,10.20
2024-01-16T09:57:28.301Z,9.40
2024-01-16T10:00:09.469Z,8.50
2024-01-16T10:03:08.255Z,10.80
2024-01-16T10:09:01.076Z,10.60
2024-01-16T10:11:30.693Z,11.50
2024-01-16T10:14:02.523Z,9.20
2024-01-16T10:16:57.195Z,10.40
2024-01-16T10:19:35.149Z,11.40
2024-01-16T10:22:27.835Z,11.40
2024-01-16T10:25:10.213Z,11.80
2024-01-16T10:27:43.111Z,11.20
2024-01-16T10:30:11.915Z,8.80
2024-01-16T10:36:41.884Z,8.60
2024-01-16T10:39:21.313Z,9.50
2024-01-16T10:42:11.175Z,7.90
2024-01-16T10:48:09.378Z,8.20
2024-01-16T10:51:40.867Z,8.10
2024-01-16T10:54:24.344Z,8.20
2024-01-16T10:56:56.040Z,5.70
2024-01-16T10:59:51.956Z,6.60
2024-01-16T11:02:28.237Z,7.30
2024-01-16T11:04:58.699Z,7.30
2024-01-16T11:07:34.130Z,6.90
2024-01-16T11:10:05.195Z,7.60
2024-01-16T11:13:15.917Z,8.00
2024-01-16T11:16:07.593Z,6.70
2024-01-16T11:19:18.103Z,6.10
2024-01-16T11:22:30.533Z,6.50
2024-01-16T11:37:31.537Z,6.50
2024-01-16T11:40:18.835Z,8.30
2024-01-16T11:43:45.330Z,7.40
2024-01-16T11:50:59.686Z,8.40
2024-01-16T11:53:46.116Z,9.00
2024-01-16T12:15:31.117Z,13.30
2024-01-16T12:21:50.741Z,11.90
2024-01-16T12:25:20.986Z,9.80
2024-01-16T12:43:26.675Z,10.70
2024-01-16T13:08:11.779Z,8.40
2024-01-16T13:18:35.735Z,8.10
2024-01-16T13:21:23.184Z,6.80
2024-01-16T13:29:13.401Z,8.80
2024-01-16T13:31:57.100Z,7.60
2024-01-16T13:36:39.278Z,8.10
2024-01-16T13:38:55.974Z,7.00
2024-01-16T13:41:30.351Z,8.50
2024-01-16T13:44:11.271Z,8.20
2024-01-16T13:47:08.990Z,8.70
2024-01-16T13:50:08.818Z,9.00
2024-01-16T13:58:57.656Z,8.70
2024-01-16T14:01:39.711Z,11.60
2024-01-16T14:11:30.637Z,10.30
2024-01-16T14:14:44.123Z,12.30
2024-01-16T14:17:20.139Z,11.10
2024-01-16T14:20:02.326Z,11.00
2024-01-16T14:22:30.239Z,10.20
2024-01-16T14:24:58.311Z,9.50
2024-01-16T14:27:26.862Z,11.00
2024-01-16T14:29:55.550Z,10.70
2024-01-16T14:32:23.786Z,10.20
2024-01-16T14:34:52.015Z,10.50
2024-01-16T14:37:23.138Z,10.40
2024-01-16T14:39:51.694Z,11.50
2024-01-16T14:42:36.192Z,13.50
2024-01-16T14:45:05.160Z,11.90
2024-01-16T14:50:35.872Z,12.00
2024-01-16T14:53:06.047Z,12.10
2024-01-16T14:55:34.591Z,13.50
2024-01-16T14:58:03.169Z,12.90
2024-01-16T15:00:32.205Z,10.50
2024-01-16T15:03:00.617Z,9.90
2024-01-16T15:07:57.610Z,10.30
2024-01-16T15:10:25.843Z,10.00
2024-01-16T15:12:54.059Z,11.00
2024-01-16T15:15:22.400Z,11.90
2024-01-16T15:17:53.300Z,12.00
2024-01-16T15:20:21.451Z,13.70
2024-01-16T15:22:54.303Z,15.70
2024-01-16T15:25:24.619Z,22.30
2024-01-16T15:27:56.141Z,24.60
2024-01-16T15:30:29.102Z,20.40
2024-01-16T15:32:57.291Z,21.70
2024-01-16T15:35:25.708Z,26.90
2024-01-16T15:37:53.482Z,28.60
2024-01-16T15:40:21.924Z,22.00
2024-01-16T15:42:49.857Z,11.10
2024-01-16T15:45:18.020Z,10.10
2024-01-16T15:47:46.204Z,10.60
2024-01-16T15:50:15.931Z,11.50
2024-01-16T15:55:12.230Z,12.80
2024-01-16T15:57:40.416Z,13.80
2024-01-16T16:00:10.543Z,13.20
2024-01-16T16:02:40.052Z,12.80
2024-01-16T16:05:09.084Z,14.70
2024-01-16T16:07:37.058Z,13.70
2024-01-16T16:10:06.017Z,15.30
2024-01-16T16:12:34.386Z,28.10
2024-01-16T16:15:02.323Z,24.30
2024-01-16T16:17:30.510Z,21.40
2024-01-16T16:19:58.569Z,19.50
2024-01-16T16:22:26.546Z,19.50
2024-01-16T16:24:54.890Z,17.70
2024-01-16T16:27:25.639Z,21.00
2024-01-16T16:29:57.775Z,20.60
2024-01-16T16:32:26.275Z,21.90
2024-01-16T16:34:54.628Z,23.70
2024-01-16T16:37:24.429Z,26.20
2024-01-16T16:39:52.831Z,25.30
2024-01-16T16:42:23.820Z,23.00
2024-01-16T16:44:51.793Z,20.70
2024-01-16T16:47:20.108Z,19.30
2024-01-16T16:49:48.159Z,19.20
2024-01-16T16:52:15.941Z,21.30
2024-01-16T16:54:47.463Z,22.90
2024-01-16T16:57:15.515Z,21.50
2024-01-16T16:59:43.355Z,23.50
2024-01-16T17:02:11.982Z,25.00
2024-01-16T17:04:40.983Z,22.50
2024-01-16T17:07:12.455Z,25.30
2024-01-16T17:09:44.089Z,25.80
2024-01-16T17:12:12.244Z,31.50
2024-01-16T17:14:40.048Z,29.20
2024-01-16T17:17:12.576Z,31.90
2024-01-16T17:19:41.776Z,33.70
2024-01-16T17:24:40.823Z,33.60
2024-01-16T17:27:09.001Z,36.70
2024-01-16T17:29:39.875Z,32.10
2024-01-16T17:32:08.984Z,36.30
2024-01-16T17:34:37.064Z,35.60
2024-01-16T17:37:05.147Z,35.00
2024-01-16T17:39:33.019Z,33.90
2024-01-16T17:42:01.145Z,33.30
2024-01-16T17:44:29.427Z,37.30
2024-01-16T17:46:57.405Z,36.40
2024-01-16T17:49:25.361Z,37.40
2024-01-16T17:51:55.494Z,38.00
2024-01-16T17:54:23.277Z,37.00
2024-01-16T17:56:51.394Z,39.30
2024-01-16T17:59:20.194Z,36.10
2024-01-16T18:01:48.200Z,35.50
2024-01-16T18:04:16.885Z,35.90
2024-01-16T18:06:45.701Z,35.40
2024-01-16T18:09:13.693Z,33.90
2024-01-16T18:11:56.615Z,34.20
2024-01-16T18:14:25.706Z,31.40
2024-01-16T18:16:57.069Z,36.30
2024-01-16T18:19:28.524Z,34.70
2024-01-16T18:21:56.916Z,34.70
2024-01-16T18:24:25.014Z,36.00
2024-01-16T18:26:53.836Z,35.40
2024-01-16T18:29:21.954Z,37.50
2024-01-16T18:31:50.481Z,33.40
2024-01-16T18:34:24.144Z,34.70
2024-01-16T18:36:54.421Z,33.40
2024-01-16T18:39:23.292Z,35.00
2024-01-16T18:41:51.331Z,39.80
2024-01-16T18:44:20.373Z,38.60
2024-01-16T18:49:19.832Z,39.90
2024-01-16T18:51:50.236Z,39.50
2024-01-16T18:54:18.234Z,37.50
2024-01-16T18:56:46.558Z,38.80
2024-01-16T18:59:14.768Z,37.40
2024-01-16T19:01:44.886Z,39.30
2024-01-16T19:04:14.390Z,39.60
2024-01-16T19:06:46.321Z,36.00
2024-01-16T19:09:16.173Z,40.20
2024-01-16T19:11:51.653Z,34.90
2024-01-16T19:14:20.521Z,37.40
2024-01-16T19:16:50.582Z,39.60
2024-01-16T19:19:18.470Z,37.00
2024-01-16T19:21:47.849Z,41.80
2024-01-16T19:26:44.952Z,41.70
2024-01-16T19:29:13.406Z,39.50
2024-01-16T19:31:45.883Z,39.30
2024-01-16T19:34:14.063Z,43.40
2024-01-16T19:36:42.269Z,43.50
2024-01-16T19:39:16.152Z,43.70
2024-01-16T19:41:47.099Z,42.60
2024-01-16T19:44:14.911Z,42.50
2024-01-16T19:46:44.540Z,39.80
2024-01-16T19:49:13.134Z,41.10
2024-01-16T19:51:41.167Z,39.00
2024-01-16T19:54:09.621Z,38.20
2024-01-16T19:56:40.542Z,42.30
2024-01-16T19:59:11.798Z,37.80
2024-01-16T20:01:40.107Z,38.40
2024-01-16T20:04:07.904Z,35.10
2024-01-16T20:06:36.277Z,37.50
2024-01-16T20:09:07.406Z,32.00
2024-01-16T20:11:35.448Z,33.70
2024-01-16T20:14:03.637Z,35.60
2024-01-16T20:16:31.810Z,35.40
2024-01-16T20:18:59.709Z,34.40
2024-01-16T20:21:28.012Z,33.90
2024-01-16T20:23:56.224Z,32.80
2024-01-16T20:26:24.144Z,34.20
2024-01-16T20:28:52.362Z,35.00
2024-01-16T20:31:20.682Z,35.40
2024-01-16T20:33:50.633Z,33.40
2024-01-16T20:36:20.569Z,36.30
2024-01-16T20:38:50.132Z,32.70
2024-01-16T20:41:18.200Z,30.90
2024-01-16T20:43:46.223Z,30.10
2024-01-16T20:46:15.730Z,34.00
2024-01-16T20:48:43.745Z,34.80
2024-01-16T20:51:15.367Z,36.60
2024-01-16T20:53:43.649Z,32.10
2024-01-16T20:56:11.698Z,36.50
2024-01-16T20:58:40.080Z,37.30
2024-01-16T21:01:08.812Z,39.10
2024-01-16T21:03:37.228Z,39.60
2024-01-16T21:06:08.460Z,37.10
2024-01-16T21:08:38.425Z,33.60
2024-01-16T21:11:09.031Z,31.60
2024-01-16T21:13:36.877Z,31.10
2024-01-16T21:16:08.733Z,32.60
2024-01-16T21:18:39.387Z,31.30
2024-01-16T21:21:07.609Z,30.20
2024-01-16T21:23:36.464Z,32.90
2024-01-16T21:26:11.087Z,31.90
2024-01-16T21:28:42.532Z,33.20
2024-01-16T21:31:10.384Z,29.10
2024-01-16T21:33:38.304Z,26.70
2024-01-16T21:36:06.761Z,27.50
2024-01-16T21:38:35.980Z,26.80
2024-01-16T21:41:08.238Z,27.20
2024-01-16T21:43:36.387Z,26.00
2024-01-16T21:46:04.268Z,25.80
2024-01-16T21:48:33.444Z,24.70
2024-01-16T21:51:01.991Z,25.20
2024-01-16T21:53:30.441Z,25.70
2024-01-16T21:55:58.585Z,27.30
2024-01-16T21:58:27.679Z,26.70
2024-01-16T22:00:56.754Z,26.60
2024-01-16T22:03:24.555Z,25.60
2024-01-16T22:05:52.815Z,25.90
2024-01-16T22:08:20.650Z,26.00
2024-01-16T22:10:49.047Z,27.20
2024-01-16T22:13:17.221Z,34.00
2024-01-16T22:15:44.948Z,30.50
2024-01-16T22:18:13.457Z,26.50
2024-01-16T22:20:41.907Z,28.20
2024-01-16T22:23:10.382Z,29.30
2024-01-16T22:25:38.282Z,24.70
2024-01-16T22:28:06.484Z,26.10
2024-01-16T22:30:35.399Z,25.60
2024-01-16T22:33:05.865Z,26.70
2024-01-16T22:35:34.234Z,25.60
2024-01-16T22:38:01.954Z,26.50
2024-01-16T22:40:31.624Z,26.00
2024-01-16T22:43:00.178Z,26.90
2024-01-16T22:45:27.882Z,27.30
2024-01-16T22:47:58.307Z,26.70
2024-01-16T22:50:26.747Z,25.30
2024-01-16T22:52:54.562Z,26.80
2024-01-16T22:55:22.518Z,25.30
2024-01-16T22:57:50.657Z,26.40
2024-01-16T23:00:21.787Z,28.60
2024-01-16T23:02:50.248Z,27.90
2024-01-16T23:05:18.602Z,26.10
2024-01-16T23:07:47.004Z,29.40
2024-01-16T23:10:15.998Z,29.90
2024-01-16T23:12:46.934Z,31.20
2024-01-16T23:15:16.717Z,28.20
2024-01-16T23:17:45.229Z,30.50
2024-01-16T23:20:17.590Z,26.10
2024-01-16T23:22:45.685Z,25.80
2024-01-16T23:25:14.672Z,26.90
2024-01-16T23:27:44.118Z,25.30
2024-01-16T23:32:40.735Z,28.80
2024-01-16T23:35:08.951Z,23.80
2024-01-16T23:37:37.619Z,25.90
2024-01-16T23:40:06.285Z,27.50
2024-01-16T23:42:34.394Z,27.50
2024-01-16T23:45:06.462Z,30.60
2024-01-16T23:47:39.035Z,27.30
2024-01-16T23:50:07.855Z,24.70
2024-01-16T23:52:35.727Z,27.90
2024-01-16T23:55:04.168Z,26.80
2024-01-16T23:57:32.012Z,26.40
